Hlavní strana
METAR-TAF:

METAR-TAF

Letiště :

Letiště Seinäjoki

Seinäjoki-Ilmajoki, Finsko

zeměpisná šířka: 62-41-37N, zeměpisná délka: 022-49-55E, výška: 91 m

Aktuální stav počasí

Zpráva byla vytvořena před 32 minutami, v 17:20 UTC
Západní vítr 2 kt
Teplota -11°C
Vlhkost vzduchu 85%
Tlak 998 hPa
Viditelnost 10 km a více
Skoro jasno ve výšce 1500 ft
Polojasno ve výšce 12000 ft
Oblačno až skoro zataženo ve výšce 15000 ft
slabé sněžení

METAR: EFSI 181720Z AUTO 28002KT 9999 -SN FEW015 SCT120 BKN150 M11/M13 Q0998

Čas: 19:52 (17:52 UTC)


TAF: chybějící

Stav a předpovědi počasí z více než 4 000 letišť (zprávy METAR a TAF).

Červené a žluté tečky na mapě představují dostupné meteorologické stanice.

Když kurzor umístíte na tečku, zobrazí se název stanice.

Pak kliknutím zobrazíte stav a předpověď počasí.

Chcete-li změnit mapu, kliknutím na zelené tlačítko se znaménkem +mapu přiblížíte, kliknutím na zelené tlačítko se znaménkem – mapu oddálíte a kliknutím na zelené šipky přejdete na sousední mapy.


METAR-TAF: